createdAt,value
2019-04-23T00:00:08.851Z,27.17
2019-04-23T00:02:58.876Z,26.40
2019-04-23T00:05:48.047Z,27.00
2019-04-23T00:08:13.410Z,27.70
2019-04-23T00:10:36.665Z,28.80
2019-04-23T00:13:05.815Z,28.60
2019-04-23T00:15:54.810Z,27.40
2019-04-23T00:18:32.163Z,29.50
2019-04-23T00:20:57.872Z,29.37
2019-04-23T00:23:32.760Z,29.63
2019-04-23T00:26:18.867Z,29.90
2019-04-23T00:28:47.910Z,31.43
2019-04-23T00:31:13.654Z,30.27
2019-04-23T00:33:57.733Z,29.03
2019-04-23T00:36:19.449Z,26.67
2019-04-23T00:38:45.476Z,25.33
2019-04-23T00:41:16.419Z,24.70
2019-04-23T00:43:54.727Z,22.07
2019-04-23T00:46:25.200Z,22.43
2019-04-23T00:48:59.088Z,20.33
2019-04-23T00:51:27.050Z,19.30
2019-04-23T00:53:56.731Z,18.53
2019-04-23T00:56:38.703Z,17.47
2019-04-23T00:59:03.984Z,16.20
2019-04-23T01:01:35.833Z,15.83
2019-04-23T01:04:18.565Z,13.53
2019-04-23T01:06:54.557Z,13.63
2019-04-23T01:09:14.134Z,13.13
2019-04-23T01:11:41.895Z,11.93
2019-04-23T01:14:14.856Z,12.30
2019-04-23T01:17:02.649Z,12.37
2019-04-23T01:19:35.212Z,13.13
2019-04-23T01:21:39.513Z,12.90
2019-04-23T01:24:44.640Z,12.90
2019-04-23T01:27:54.810Z,12.93
2019-04-23T01:30:15.896Z,13.60
2019-04-23T01:32:41.053Z,13.20
2019-04-23T01:37:46.531Z,12.33
2019-04-23T01:40:26.870Z,12.43
2019-04-23T01:42:56.152Z,11.80
2019-04-23T01:45:24.558Z,12.30
2019-04-23T01:47:54.771Z,12.30
2019-04-23T01:53:12.329Z,12.03
2019-04-23T01:55:38.413Z,11.63
2019-04-23T01:58:21.916Z,11.50
2019-04-23T02:03:09.446Z,11.10
2019-04-23T02:05:44.852Z,11.10
2019-04-23T02:10:51.391Z,10.80
2019-04-23T02:13:16.509Z,10.17
2019-04-23T02:15:47.402Z,10.27
2019-04-23T02:18:18.289Z,10.07
2019-04-23T02:20:54.602Z,9.57
2019-04-23T02:23:59.685Z,10.47
2019-04-23T02:26:20.055Z,10.03
2019-04-23T02:29:13.306Z,10.10
2019-04-23T02:31:45.091Z,9.20
2019-04-23T02:34:15.044Z,9.87
2019-04-23T02:36:32.533Z,9.17
2019-04-23T02:38:57.980Z,8.80
2019-04-23T02:41:41.496Z,8.37
2019-04-23T02:44:11.538Z,9.27
2019-04-23T02:46:31.305Z,8.67
2019-04-23T02:49:38.187Z,8.57
2019-04-23T02:51:45.518Z,10.00
2019-04-23T02:54:26.600Z,11.67
2019-04-23T02:59:29.080Z,10.70
2019-04-23T03:01:57.928Z,8.77
2019-04-23T03:04:28.659Z,9.13
2019-04-23T03:06:55.595Z,9.07
2019-04-23T03:12:09.789Z,9.43
2019-04-23T03:14:33.409Z,8.43
2019-04-23T03:17:02.976Z,8.10
2019-04-23T03:20:08.010Z,7.20
2019-04-23T03:25:35.642Z,6.57
2019-04-23T03:28:25.140Z,6.93
2019-04-23T03:32:01.784Z,7.07
2019-04-23T03:33:55.462Z,7.00
2019-04-23T03:38:37.534Z,7.57
2019-04-23T03:40:57.118Z,8.83
2019-04-23T03:46:12.285Z,10.27
2019-04-23T03:48:33.992Z,11.70
2019-04-23T03:50:52.260Z,11.43
2019-04-23T03:53:43.160Z,12.53
2019-04-23T03:58:42.581Z,11.83
2019-04-23T04:01:11.950Z,12.87
2019-04-23T04:06:23.531Z,13.73
2019-04-23T04:08:55.961Z,15.17
2019-04-23T04:13:53.234Z,18.93
2019-04-23T04:16:18.230Z,17.30
2019-04-23T04:21:27.255Z,16.67
2019-04-23T04:24:01.698Z,16.97
2019-04-23T04:31:41.548Z,16.90
2019-04-23T04:34:11.741Z,16.97
2019-04-23T04:37:11.723Z,17.83
2019-04-23T04:39:19.469Z,17.70
2019-04-23T04:41:40.506Z,18.87
2019-04-23T04:44:26.839Z,16.80
2019-04-23T04:46:45.841Z,17.40
2019-04-23T04:49:15.082Z,16.93
2019-04-23T04:54:17.662Z,19.07
2019-04-23T04:56:47.231Z,20.30
2019-04-23T04:59:13.322Z,18.87
2019-04-23T05:07:02.486Z,17.17
2019-04-23T05:09:29.281Z,16.00
2019-04-23T05:16:56.751Z,13.67
2019-04-23T05:24:35.229Z,14.87
2019-04-23T05:27:04.546Z,14.67
2019-04-23T05:29:42.817Z,15.30
2019-04-23T05:32:10.116Z,14.97
2019-04-23T05:34:40.088Z,13.97
2019-04-23T05:37:15.978Z,12.60
2019-04-23T05:42:33.156Z,9.80
2019-04-23T05:44:52.530Z,9.10
2019-04-23T05:47:23.089Z,10.23
2019-04-23T05:49:54.727Z,11.47
2019-04-23T05:52:24.019Z,11.57
2019-04-23T05:54:56.352Z,12.10
2019-04-23T05:57:33.295Z,12.07
2019-04-23T05:59:56.919Z,11.43
2019-04-23T06:02:37.275Z,12.20
2019-04-23T06:05:03.824Z,10.70
2019-04-23T06:07:38.951Z,10.77
2019-04-23T06:10:06.455Z,11.07
2019-04-23T06:12:37.041Z,10.90
2019-04-23T06:15:11.554Z,12.03
2019-04-23T06:17:38.155Z,12.10
2019-04-23T06:20:16.482Z,12.47
2019-04-23T06:25:35.757Z,10.80
2019-04-23T06:30:31.227Z,10.10
2019-04-23T06:32:51.454Z,9.83
2019-04-23T06:35:22.532Z,10.00
2019-04-23T06:38:24.172Z,9.57
2019-04-23T06:40:26.659Z,9.37
2019-04-23T06:43:05.341Z,8.87
2019-04-23T06:45:35.554Z,9.27
2019-04-23T06:48:15.451Z,8.80
2019-04-23T06:50:43.399Z,9.87
2019-04-23T06:53:04.342Z,9.33
2019-04-23T06:55:42.533Z,9.47
2019-04-23T06:58:24.043Z,8.63
2019-04-23T07:00:51.257Z,10.00
2019-04-23T07:03:25.943Z,9.53
2019-04-23T07:13:57.725Z,9.33
2019-04-23T07:16:16.040Z,9.40
2019-04-23T07:18:48.897Z,9.57
2019-04-23T07:21:23.562Z,8.43
2019-04-23T07:29:00.016Z,8.60
2019-04-23T07:34:01.282Z,8.50
2019-04-23T07:39:11.665Z,8.87
2019-04-23T07:42:03.597Z,9.30
2019-04-23T07:44:42.363Z,9.53
2019-04-23T07:47:53.759Z,8.70
2019-04-23T07:50:15.888Z,9.28
2019-04-23T07:52:41.485Z,9.53
2019-04-23T07:55:23.635Z,9.80
2019-04-23T07:57:44.295Z,9.20
2019-04-23T08:00:24.106Z,10.18
2019-04-23T08:02:49.955Z,10.25
2019-04-23T08:07:54.143Z,9.50
2019-04-23T08:10:22.797Z,10.43
2019-04-23T08:12:52.755Z,9.78
2019-04-23T08:15:30.954Z,10.38
2019-04-23T08:17:58.660Z,9.85
2019-04-23T08:20:29.960Z,9.90
2019-04-23T08:23:05.942Z,9.60
2019-04-23T08:26:13.624Z,9.88
2019-04-23T08:28:41.971Z,9.25
2019-04-23T08:31:07.829Z,8.58
2019-04-23T08:33:44.795Z,8.88
2019-04-23T08:36:18.200Z,9.10
2019-04-23T08:38:58.285Z,9.30
2019-04-23T08:43:46.624Z,9.13
2019-04-23T08:49:25.760Z,10.08
2019-04-23T08:51:53.368Z,9.73
2019-04-23T08:54:39.235Z,9.90
2019-04-23T08:57:04.089Z,9.53
2019-04-23T09:02:18.930Z,10.65
2019-04-23T09:04:43.631Z,10.98
2019-04-23T09:07:12.891Z,9.95
2019-04-23T09:09:43.802Z,10.68
2019-04-23T09:12:14.748Z,10.95
2019-04-23T09:14:38.120Z,10.80
2019-04-23T09:17:27.704Z,10.93
2019-04-23T09:22:25.147Z,11.25
2019-04-23T09:24:46.872Z,11.68
2019-04-23T09:27:31.660Z,11.18
2019-04-23T09:30:06.889Z,11.33
2019-04-23T09:32:24.819Z,11.78
2019-04-23T09:35:27.484Z,11.05
2019-04-23T09:44:14.413Z,11.40
2019-04-23T09:46:47.293Z,11.78
2019-04-23T09:49:20.654Z,11.97
2019-04-23T09:51:55.547Z,12.70
2019-04-23T09:54:18.478Z,12.35
2019-04-23T09:56:47.787Z,11.78
2019-04-23T10:01:45.494Z,12.80
2019-04-23T10:04:12.542Z,12.50
2019-04-23T10:06:34.475Z,12.30
2019-04-23T10:09:06.171Z,13.58
2019-04-23T10:11:34.864Z,13.00
2019-04-23T10:14:06.240Z,12.28
2019-04-23T10:16:36.932Z,12.90
2019-04-23T10:19:08.029Z,12.90
2019-04-23T10:21:39.442Z,12.85
2019-04-23T10:24:09.684Z,12.80
2019-04-23T10:26:39.986Z,12.43
2019-04-23T10:29:18.147Z,12.40
2019-04-23T10:31:49.369Z,12.58
2019-04-23T10:34:21.031Z,13.40
2019-04-23T10:36:51.582Z,11.70
2019-04-23T10:39:26.280Z,11.70
2019-04-23T10:41:56.994Z,12.28
2019-04-23T10:44:52.095Z,10.70
2019-04-23T10:48:30.920Z,11.97
2019-04-23T10:53:30.008Z,11.48
2019-04-23T10:56:20.044Z,11.28
2019-04-23T10:58:34.928Z,10.95
2019-04-23T11:01:06.326Z,10.85
2019-04-23T11:03:48.691Z,10.55
2019-04-23T11:06:17.752Z,10.28
2019-04-23T11:08:40.592Z,10.58
2019-04-23T11:11:16.616Z,10.35
2019-04-23T11:13:48.818Z,10.80
2019-04-23T11:19:11.294Z,10.93
2019-04-23T11:21:29.883Z,10.70
2019-04-23T11:24:02.536Z,10.40
2019-04-23T11:29:07.459Z,10.60
2019-04-23T11:31:39.253Z,9.00
2019-04-23T11:39:05.527Z,8.10
2019-04-23T11:41:45.686Z,8.10
2019-04-23T11:44:18.985Z,8.80
2019-04-23T11:46:53.978Z,8.78
2019-04-23T11:49:29.541Z,7.78
2019-04-23T11:51:54.720Z,7.10
2019-04-23T11:54:21.352Z,6.83
2019-04-23T11:59:31.821Z,7.10
2019-04-23T12:02:23.399Z,6.62
2019-04-23T12:05:24.753Z,5.80
2019-04-23T12:07:52.336Z,7.25
2019-04-23T12:13:03.865Z,5.80
2019-04-23T12:15:32.841Z,5.90
2019-04-23T12:18:15.048Z,5.28
2019-04-23T12:20:39.812Z,5.20
2019-04-23T12:25:51.552Z,4.75
2019-04-23T12:28:14.087Z,5.30
2019-04-23T12:30:45.431Z,5.37
2019-04-23T12:33:20.751Z,5.00
2019-04-23T12:35:41.711Z,5.17
2019-04-23T12:38:19.242Z,5.40
2019-04-23T12:41:10.619Z,5.15
2019-04-23T12:43:20.695Z,5.10
2019-04-23T12:45:46.856Z,5.08
2019-04-23T12:51:17.443Z,4.37
2019-04-23T12:56:03.734Z,4.70
2019-04-23T12:58:41.677Z,4.87
2019-04-23T13:01:10.823Z,4.53
2019-04-23T13:03:32.946Z,4.95
2019-04-23T13:06:11.167Z,4.47
2019-04-23T13:08:44.231Z,4.30
2019-04-23T13:11:14.088Z,4.45
2019-04-23T13:13:48.377Z,4.65
2019-04-23T13:16:22.169Z,4.45
2019-04-23T13:18:49.740Z,4.70
2019-04-23T13:21:45.288Z,5.37
2019-04-23T13:23:55.602Z,5.20
2019-04-23T13:26:30.732Z,4.85
2019-04-23T13:29:16.122Z,5.03
2019-04-23T13:31:34.694Z,5.47
2019-04-23T13:34:16.281Z,4.80
2019-04-23T13:39:21.195Z,5.47
2019-04-23T13:41:47.864Z,5.40
2019-04-23T13:44:19.319Z,5.17
2019-04-23T13:46:52.585Z,5.25
2019-04-23T13:49:28.382Z,4.53
2019-04-23T13:51:58.785Z,4.25
2019-04-23T13:54:50.221Z,4.47
2019-04-23T13:57:36.497Z,4.50
2019-04-23T13:59:38.930Z,4.65
2019-04-23T14:02:03.281Z,4.45
2019-04-23T14:07:34.633Z,4.92
2019-04-23T14:10:07.228Z,4.37
2019-04-23T14:12:31.974Z,4.80
2019-04-23T14:15:24.191Z,5.10
2019-04-23T14:20:08.695Z,4.90
2019-04-23T14:25:10.021Z,4.67
2019-04-23T14:27:51.399Z,4.42
2019-04-23T14:32:47.020Z,4.42
2019-04-23T14:38:02.380Z,4.87
2019-04-23T14:40:26.549Z,4.20
2019-04-23T14:43:04.342Z,4.45
2019-04-23T14:46:25.122Z,4.92
2019-04-23T14:48:10.370Z,5.12
2019-04-23T14:53:12.128Z,4.85
2019-04-23T14:55:49.008Z,5.00
2019-04-23T14:58:20.330Z,5.33
2019-04-23T15:00:54.120Z,4.87
2019-04-23T15:03:24.938Z,5.28
2019-04-23T15:05:59.709Z,5.08
2019-04-23T15:08:25.161Z,5.08
2019-04-23T15:11:06.535Z,4.55
2019-04-23T15:13:22.711Z,4.10
2019-04-23T15:16:02.892Z,4.80
2019-04-23T15:19:07.952Z,4.50
2019-04-23T15:28:41.217Z,5.30
2019-04-23T15:31:33.040Z,5.15
2019-04-23T15:34:10.780Z,4.25
2019-04-23T15:36:50.814Z,4.80
2019-04-23T15:39:26.805Z,4.20
2019-04-23T15:46:47.140Z,4.65
2019-04-23T15:54:19.530Z,5.83
2019-04-23T15:56:54.807Z,4.67
2019-04-23T15:59:28.994Z,4.90
2019-04-23T16:01:43.573Z,4.40
2019-04-23T16:03:57.601Z,4.42
2019-04-23T16:06:30.916Z,4.30
2019-04-23T16:09:17.898Z,4.62
2019-04-23T16:11:51.780Z,4.72
2019-04-23T16:14:35.804Z,4.90
2019-04-23T16:17:09.893Z,4.97
2019-04-23T16:20:09.266Z,4.80
2019-04-23T16:22:24.904Z,4.80
2019-04-23T16:25:00.917Z,4.97
2019-04-23T16:27:19.631Z,4.40
2019-04-23T16:30:12.845Z,4.45
2019-04-23T16:32:57.770Z,4.00
2019-04-23T16:38:07.736Z,4.20
2019-04-23T16:43:03.540Z,4.25
2019-04-23T16:48:17.207Z,4.75
2019-04-23T16:50:43.922Z,4.60
2019-04-23T16:53:21.520Z,4.30
2019-04-23T16:55:38.381Z,4.35
2019-04-23T16:58:21.863Z,4.40
2019-04-23T17:00:51.593Z,4.80
2019-04-23T17:05:50.707Z,4.65
2019-04-23T17:13:24.080Z,4.78
2019-04-23T17:15:58.690Z,4.00
2019-04-23T17:20:58.355Z,4.40
2019-04-23T17:23:38.867Z,4.40
2019-04-23T17:26:04.207Z,4.37
2019-04-23T17:28:56.252Z,4.45
2019-04-23T17:31:26.593Z,4.00
2019-04-23T17:33:43.468Z,4.45
2019-04-23T17:39:06.797Z,4.35
2019-04-23T17:41:50.091Z,4.25
2019-04-23T17:46:54.190Z,4.90
2019-04-23T17:49:24.872Z,4.65
2019-04-23T17:51:59.192Z,4.60
2019-04-23T17:54:24.766Z,4.83
2019-04-23T18:05:02.821Z,5.05
2019-04-23T18:07:38.387Z,4.85
2019-04-23T18:10:09.815Z,5.10
2019-04-23T18:12:40.541Z,5.00
2019-04-23T18:17:35.470Z,5.15
2019-04-23T18:20:16.305Z,5.12
2019-04-23T18:22:56.857Z,5.40
2019-04-23T18:25:45.746Z,5.30
2019-04-23T18:28:08.458Z,6.15
2019-04-23T18:31:11.256Z,5.78
2019-04-23T18:34:03.734Z,6.30
2019-04-23T18:36:19.723Z,5.33
2019-04-23T18:39:08.550Z,6.15
2019-04-23T18:41:29.064Z,6.53
2019-04-23T18:44:06.978Z,6.03
2019-04-23T18:46:36.732Z,6.05
2019-04-23T18:48:58.187Z,6.70
2019-04-23T18:51:38.396Z,6.62
2019-04-23T18:54:03.085Z,6.22
2019-04-23T18:59:10.706Z,6.78
2019-04-23T19:02:17.322Z,6.80
2019-04-23T19:05:03.815Z,6.87
2019-04-23T19:07:42.972Z,6.75
2019-04-23T19:10:29.190Z,6.40
2019-04-23T19:13:28.698Z,6.97
2019-04-23T19:15:37.997Z,6.50
2019-04-23T19:18:14.245Z,6.40
2019-04-23T19:20:55.787Z,6.78
2019-04-23T19:25:46.800Z,6.55
2019-04-23T19:28:34.555Z,7.15
2019-04-23T19:31:26.102Z,7.10
2019-04-23T19:36:49.284Z,7.22
2019-04-23T19:39:21.435Z,6.97
2019-04-23T19:44:22.205Z,6.70
2019-04-23T19:46:54.592Z,7.05
2019-04-23T19:51:53.217Z,7.00
2019-04-23T19:59:41.025Z,7.20
2019-04-23T20:02:00.165Z,6.95
2019-04-23T20:04:39.333Z,7.00
2019-04-23T20:09:43.169Z,6.55
2019-04-23T20:12:06.253Z,6.72
2019-04-23T20:14:49.754Z,7.20
2019-04-23T20:19:44.207Z,6.47
2019-04-23T20:22:26.116Z,7.25
2019-04-23T20:24:57.629Z,7.00
2019-04-23T20:27:35.135Z,7.20
2019-04-23T20:30:33.888Z,7.60
2019-04-23T20:35:21.558Z,7.47
2019-04-23T20:40:31.231Z,8.30
2019-04-23T20:42:53.496Z,7.50
2019-04-23T20:45:27.381Z,7.37
2019-04-23T20:47:57.780Z,7.67
2019-04-23T20:50:34.493Z,8.28
2019-04-23T20:52:57.472Z,7.90
2019-04-23T20:55:54.611Z,7.70
2019-04-23T20:58:20.930Z,7.85
2019-04-23T21:01:27.380Z,7.10
2019-04-23T21:06:30.086Z,7.47
2019-04-23T21:11:24.166Z,7.50
2019-04-23T21:16:36.266Z,7.00
2019-04-23T21:18:54.997Z,7.62
2019-04-23T21:21:39.746Z,7.87
2019-04-23T21:24:01.332Z,7.60
2019-04-23T21:26:46.066Z,8.40
2019-04-23T21:29:04.055Z,7.58
2019-04-23T21:31:48.447Z,8.40
2019-04-23T21:34:21.098Z,8.63
2019-04-23T21:36:48.208Z,8.83
2019-04-23T21:39:38.524Z,9.60
2019-04-23T21:42:21.034Z,9.13
2019-04-23T21:44:55.648Z,8.18
2019-04-23T21:47:25.531Z,8.78
2019-04-23T21:50:10.694Z,8.50
2019-04-23T21:52:49.009Z,8.33
2019-04-23T21:57:46.339Z,8.68
2019-04-23T21:59:59.303Z,8.90
2019-04-23T22:02:50.519Z,8.33
2019-04-23T22:05:09.430Z,8.50
2019-04-23T22:07:51.766Z,7.85
2019-04-23T22:10:11.674Z,8.93
2019-04-23T22:13:02.197Z,8.95
2019-04-23T22:15:13.041Z,8.83
2019-04-23T22:20:25.501Z,8.20
2019-04-23T22:25:21.886Z,8.88
2019-04-23T22:28:10.143Z,8.98
2019-04-23T22:30:30.688Z,9.28
2019-04-23T22:33:02.605Z,9.33
2019-04-23T22:35:35.124Z,9.48
2019-04-23T22:38:15.826Z,9.40
2019-04-23T22:40:34.874Z,8.95
2019-04-23T22:43:25.268Z,8.33
2019-04-23T22:45:43.200Z,8.93
2019-04-23T22:48:17.955Z,8.73
2019-04-23T22:50:59.226Z,8.90
2019-04-23T22:55:57.364Z,9.95
2019-04-23T22:58:36.894Z,9.08
2019-04-23T23:03:44.141Z,9.50
2019-04-23T23:09:02.617Z,9.77
2019-04-23T23:11:13.655Z,9.35
2019-04-23T23:14:09.729Z,9.13
2019-04-23T23:16:21.353Z,9.20
2019-04-23T23:19:05.098Z,9.00
2019-04-23T23:21:38.139Z,8.73
2019-04-23T23:23:59.625Z,9.33
2019-04-23T23:26:31.723Z,9.17
2019-04-23T23:29:00.684Z,9.17
2019-04-23T23:31:38.080Z,8.63
2019-04-23T23:34:09.847Z,8.63
2019-04-23T23:36:46.879Z,9.80
2019-04-23T23:39:16.226Z,9.13
2019-04-23T23:41:48.900Z,8.70
2019-04-23T23:49:22.145Z,9.07
2019-04-23T23:51:49.573Z,9.20
2019-04-23T23:57:11.193Z,10.27
2019-04-23T23:59:48.160Z,10.03
